Pagina principale
METAR-TAF:

METAR-TAF

Aeroporti :

Plymouth Municipal Airport

Plymouth, Massachusetts, Stati Uniti

latitudine: 41-54-31N, longitudine: 070-43-41W, altezza: 45 m

Osservazione

Il bollettino è stato emesso 9 minuti fa, alle 10:52 UTC
Vento calmo
Temperature 11°C
Umidità 82%
Pressione 1024 hPa
Visibilità: 16.1 km
Cielo sereno

METAR: KPYM 231052Z AUTO 00000KT 10SM CLR 11/08 A3025 RMK AO2 SLP243 T01060083

Ora: 07:01 (11:01 UTC)


TAF: mancante

Osservazioni e previsioni meteorologiche di più di 4000 aeroporti (messaggi METAR e TAF).

Le stazioni disponibili sono rappresentate dai dischi gialli e rossi sulla carta.

Puntare il mouse per vedere il nome della stazione.

Clicca sopra per visualizzare le osservazioni e previsioni meteorologiche.

Per cambiare la mappa : fare clic sui pulsanti verdi con una croce nera per ingrandire, il pulsante verde con un trattino per diminuire, o sulla freccia verde per le mappe adiacenti.


METAR-TAF: